sensor_id;sensor_type;location;lat;lon;timestamp;P1;durP1;ratioP1;P2;durP2;ratioP2
34296;SDS011;20564;42.902;25.336;2022-07-23T00:00:29;0.98;;;0.70;;
34296;SDS011;20564;42.902;25.336;2022-07-23T00:03:04;1.65;;;0.65;;
34296;SDS011;20564;42.902;25.336;2022-07-23T00:05:31;2.50;;;0.70;;
34296;SDS011;20564;42.902;25.336;2022-07-23T00:08:02;3.05;;;0.70;;
34296;SDS011;20564;42.902;25.336;2022-07-23T00:10:31;1.15;;;0.55;;
34296;SDS011;20564;42.902;25.336;2022-07-23T00:12:59;1.48;;;0.47;;
34296;SDS011;20564;42.902;25.336;2022-07-23T00:15:26;2.05;;;0.68;;
34296;SDS011;20564;42.902;25.336;2022-07-23T00:17:53;1.67;;;0.60;;
34296;SDS011;20564;42.902;25.336;2022-07-23T00:20:20;2.58;;;0.90;;
34296;SDS011;20564;42.902;25.336;2022-07-23T00:22:52;3.25;;;0.88;;
34296;SDS011;20564;42.902;25.336;2022-07-23T00:25:21;1.70;;;0.80;;
34296;SDS011;20564;42.902;25.336;2022-07-23T00:27:54;1.25;;;0.60;;
34296;SDS011;20564;42.902;25.336;2022-07-23T00:30:21;1.65;;;0.88;;
34296;SDS011;20564;42.902;25.336;2022-07-23T00:32:50;0.90;;;0.57;;
34296;SDS011;20564;42.902;25.336;2022-07-23T00:35:25;2.92;;;0.75;;
34296;SDS011;20564;42.902;25.336;2022-07-23T00:37:54;3.90;;;1.55;;
34296;SDS011;20564;42.902;25.336;2022-07-23T00:40:22;3.45;;;0.93;;
34296;SDS011;20564;42.902;25.336;2022-07-23T00:42:49;1.10;;;0.68;;
34296;SDS011;20564;42.902;25.336;2022-07-23T00:45:17;1.67;;;0.80;;
34296;SDS011;20564;42.902;25.336;2022-07-23T00:47:44;1.00;;;0.60;;
34296;SDS011;20564;42.902;25.336;2022-07-23T00:50:12;0.95;;;0.60;;
34296;SDS011;20564;42.902;25.336;2022-07-23T00:52:40;1.38;;;0.70;;
34296;SDS011;20564;42.902;25.336;2022-07-23T00:55:08;2.58;;;1.00;;
34296;SDS011;20564;42.902;25.336;2022-07-23T00:57:37;1.20;;;0.60;;
34296;SDS011;20564;42.902;25.336;2022-07-23T01:00:05;0.85;;;0.55;;
34296;SDS011;20564;42.902;25.336;2022-07-23T01:02:35;1.65;;;0.50;;
34296;SDS011;20564;42.902;25.336;2022-07-23T01:05:02;2.10;;;0.52;;
34296;SDS011;20564;42.902;25.336;2022-07-23T01:09:57;2.83;;;0.85;;
34296;SDS011;20564;42.902;25.336;2022-07-23T01:12:25;1.42;;;0.40;;
34296;SDS011;20564;42.902;25.336;2022-07-23T01:14:56;2.20;;;0.77;;
34296;SDS011;20564;42.902;25.336;2022-07-23T01:17:24;3.83;;;1.25;;
34296;SDS011;20564;42.902;25.336;2022-07-23T01:19:51;2.38;;;0.95;;
34296;SDS011;20564;42.902;25.336;2022-07-23T01:22:19;2.22;;;0.68;;
34296;SDS011;20564;42.902;25.336;2022-07-23T01:24:47;1.33;;;0.60;;
34296;SDS011;20564;42.902;25.336;2022-07-23T01:27:14;3.30;;;1.00;;
34296;SDS011;20564;42.902;25.336;2022-07-23T01:29:44;1.75;;;0.80;;
34296;SDS011;20564;42.902;25.336;2022-07-23T01:32:11;1.52;;;0.90;;
34296;SDS011;20564;42.902;25.336;2022-07-23T01:34:39;2.55;;;0.60;;
34296;SDS011;20564;42.902;25.336;2022-07-23T01:37:07;2.28;;;0.68;;
34296;SDS011;20564;42.902;25.336;2022-07-23T01:39:34;3.20;;;0.73;;
34296;SDS011;20564;42.902;25.336;2022-07-23T01:42:01;3.00;;;0.80;;
34296;SDS011;20564;42.902;25.336;2022-07-23T01:44:29;1.75;;;0.50;;
34296;SDS011;20564;42.902;25.336;2022-07-23T01:46:56;2.40;;;0.85;;
34296;SDS011;20564;42.902;25.336;2022-07-23T01:49:23;2.38;;;0.50;;
34296;SDS011;20564;42.902;25.336;2022-07-23T01:51:50;2.65;;;1.00;;
34296;SDS011;20564;42.902;25.336;2022-07-23T01:54:32;1.77;;;0.73;;
34296;SDS011;20564;42.902;25.336;2022-07-23T01:57:00;1.17;;;0.68;;
34296;SDS011;20564;42.902;25.336;2022-07-23T01:59:30;1.73;;;0.60;;
34296;SDS011;20564;42.902;25.336;2022-07-23T02:01:58;2.13;;;0.65;;
34296;SDS011;20564;42.902;25.336;2022-07-23T02:04:25;2.92;;;0.68;;
34296;SDS011;20564;42.902;25.336;2022-07-23T02:06:53;1.83;;;0.50;;
34296;SDS011;20564;42.902;25.336;2022-07-23T02:09:20;1.25;;;0.70;;
34296;SDS011;20564;42.902;25.336;2022-07-23T02:11:49;2.72;;;0.82;;
34296;SDS011;20564;42.902;25.336;2022-07-23T02:14:16;1.13;;;0.60;;
34296;SDS011;20564;42.902;25.336;2022-07-23T02:16:43;3.05;;;0.60;;
34296;SDS011;20564;42.902;25.336;2022-07-23T02:19:10;1.23;;;0.68;;
34296;SDS011;20564;42.902;25.336;2022-07-23T02:21:41;1.95;;;0.68;;
34296;SDS011;20564;42.902;25.336;2022-07-23T02:24:09;2.40;;;1.02;;
34296;SDS011;20564;42.902;25.336;2022-07-23T02:26:36;2.47;;;0.60;;
34296;SDS011;20564;42.902;25.336;2022-07-23T02:29:04;2.08;;;0.80;;
34296;SDS011;20564;42.902;25.336;2022-07-23T02:31:32;1.85;;;0.75;;
34296;SDS011;20564;42.902;25.336;2022-07-23T02:34:00;3.67;;;1.30;;
34296;SDS011;20564;42.902;25.336;2022-07-23T02:36:28;1.45;;;0.60;;
34296;SDS011;20564;42.902;25.336;2022-07-23T02:38:55;2.00;;;0.68;;
34296;SDS011;20564;42.902;25.336;2022-07-23T02:41:24;1.48;;;0.75;;
34296;SDS011;20564;42.902;25.336;2022-07-23T02:43:51;2.08;;;0.98;;
34296;SDS011;20564;42.902;25.336;2022-07-23T02:46:18;1.85;;;0.68;;
34296;SDS011;20564;42.902;25.336;2022-07-23T02:48:45;2.33;;;0.77;;
34296;SDS011;20564;42.902;25.336;2022-07-23T02:51:12;2.47;;;1.08;;
34296;SDS011;20564;42.902;25.336;2022-07-23T02:56:07;2.30;;;0.75;;
34296;SDS011;20564;42.902;25.336;2022-07-23T03:01:02;2.03;;;0.90;;
34296;SDS011;20564;42.902;25.336;2022-07-23T03:03:29;2.08;;;1.00;;
34296;SDS011;20564;42.902;25.336;2022-07-23T03:06:00;3.00;;;0.85;;
34296;SDS011;20564;42.902;25.336;2022-07-23T03:08:27;3.47;;;1.00;;
34296;SDS011;20564;42.902;25.336;2022-07-23T03:10:54;3.17;;;0.95;;
34296;SDS011;20564;42.902;25.336;2022-07-23T03:13:21;2.20;;;1.00;;
34296;SDS011;20564;42.902;25.336;2022-07-23T03:15:48;2.55;;;1.08;;
34296;SDS011;20564;42.902;25.336;2022-07-23T03:18:16;2.05;;;1.08;;
34296;SDS011;20564;42.902;25.336;2022-07-23T03:20:43;4.30;;;1.20;;
34296;SDS011;20564;42.902;25.336;2022-07-23T03:23:10;2.35;;;0.90;;
34296;SDS011;20564;42.902;25.336;2022-07-23T03:25:37;2.83;;;1.02;;
34296;SDS011;20564;42.902;25.336;2022-07-23T03:28:04;4.97;;;0.80;;
34296;SDS011;20564;42.902;25.336;2022-07-23T03:30:31;2.10;;;0.95;;
34296;SDS011;20564;42.902;25.336;2022-07-23T03:32:58;2.20;;;0.68;;
34296;SDS011;20564;42.902;25.336;2022-07-23T03:35:25;1.10;;;0.60;;
34296;SDS011;20564;42.902;25.336;2022-07-23T03:37:53;2.42;;;0.73;;
34296;SDS011;20564;42.902;25.336;2022-07-23T03:40:21;3.83;;;0.98;;
34296;SDS011;20564;42.902;25.336;2022-07-23T03:42:48;1.20;;;0.82;;
34296;SDS011;20564;42.902;25.336;2022-07-23T03:45:15;2.88;;;1.20;;
34296;SDS011;20564;42.902;25.336;2022-07-23T03:47:42;2.20;;;0.85;;
34296;SDS011;20564;42.902;25.336;2022-07-23T03:50:11;7.35;;;1.38;;
34296;SDS011;20564;42.902;25.336;2022-07-23T03:52:38;2.72;;;0.85;;
34296;SDS011;20564;42.902;25.336;2022-07-23T03:55:08;4.45;;;1.00;;
34296;SDS011;20564;42.902;25.336;2022-07-23T03:57:41;2.13;;;1.10;;
34296;SDS011;20564;42.902;25.336;2022-07-23T04:00:10;2.78;;;0.98;;
34296;SDS011;20564;42.902;25.336;2022-07-23T04:02:52;2.15;;;1.02;;
34296;SDS011;20564;42.902;25.336;2022-07-23T04:05:19;3.03;;;0.98;;
34296;SDS011;20564;42.902;25.336;2022-07-23T04:07:46;3.58;;;0.90;;
34296;SDS011;20564;42.902;25.336;2022-07-23T04:10:14;4.72;;;1.25;;
34296;SDS011;20564;42.902;25.336;2022-07-23T04:12:42;1.52;;;0.88;;
34296;SDS011;20564;42.902;25.336;2022-07-23T04:15:09;1.73;;;1.17;;
34296;SDS011;20564;42.902;25.336;2022-07-23T04:17:38;3.60;;;1.60;;
34296;SDS011;20564;42.902;25.336;2022-07-23T04:20:05;4.68;;;1.67;;
34296;SDS011;20564;42.902;25.336;2022-07-23T04:22:33;14.57;;;5.20;;
34296;SDS011;20564;42.902;25.336;2022-07-23T04:25:00;11.90;;;4.13;;
34296;SDS011;20564;42.902;25.336;2022-07-23T04:27:28;12.82;;;5.45;;
34296;SDS011;20564;42.902;25.336;2022-07-23T04:29:55;11.15;;;4.32;;
34296;SDS011;20564;42.902;25.336;2022-07-23T04:32:22;12.35;;;3.60;;
34296;SDS011;20564;42.902;25.336;2022-07-23T04:34:49;8.02;;;2.47;;
34296;SDS011;20564;42.902;25.336;2022-07-23T04:37:16;11.20;;;3.50;;
34296;SDS011;20564;42.902;25.336;2022-07-23T04:39:43;10.13;;;3.20;;
34296;SDS011;20564;42.902;25.336;2022-07-23T04:42:11;8.45;;;2.53;;
34296;SDS011;20564;42.902;25.336;2022-07-23T04:44:38;7.75;;;2.58;;
34296;SDS011;20564;42.902;25.336;2022-07-23T04:47:05;4.95;;;2.58;;
34296;SDS011;20564;42.902;25.336;2022-07-23T04:49:33;5.32;;;1.77;;
34296;SDS011;20564;42.902;25.336;2022-07-23T04:52:00;4.90;;;1.60;;
34296;SDS011;20564;42.902;25.336;2022-07-23T04:54:27;3.60;;;1.58;;
34296;SDS011;20564;42.902;25.336;2022-07-23T04:56:55;4.38;;;1.75;;
34296;SDS011;20564;42.902;25.336;2022-07-23T04:59:23;3.85;;;1.60;;
34296;SDS011;20564;42.902;25.336;2022-07-23T05:01:50;4.30;;;1.75;;
34296;SDS011;20564;42.902;25.336;2022-07-23T05:04:17;2.22;;;1.05;;
34296;SDS011;20564;42.902;25.336;2022-07-23T05:06:45;4.53;;;1.85;;
34296;SDS011;20564;42.902;25.336;2022-07-23T05:09:12;3.95;;;1.30;;
34296;SDS011;20564;42.902;25.336;2022-07-23T05:11:39;4.95;;;1.73;;
34296;SDS011;20564;42.902;25.336;2022-07-23T05:14:06;2.85;;;1.20;;
34296;SDS011;20564;42.902;25.336;2022-07-23T05:16:33;2.42;;;1.38;;
34296;SDS011;20564;42.902;25.336;2022-07-23T05:19:00;2.53;;;1.27;;
34296;SDS011;20564;42.902;25.336;2022-07-23T05:23:55;4.00;;;1.33;;
34296;SDS011;20564;42.902;25.336;2022-07-23T05:26:22;4.15;;;1.65;;
34296;SDS011;20564;42.902;25.336;2022-07-23T05:28:49;3.08;;;1.20;;
34296;SDS011;20564;42.902;25.336;2022-07-23T05:31:17;4.65;;;1.80;;
34296;SDS011;20564;42.902;25.336;2022-07-23T05:36:11;3.72;;;1.40;;
34296;SDS011;20564;42.902;25.336;2022-07-23T05:38:41;3.03;;;1.60;;
34296;SDS011;20564;42.902;25.336;2022-07-23T05:41:08;2.35;;;1.58;;
34296;SDS011;20564;42.902;25.336;2022-07-23T05:43:35;3.92;;;1.27;;
34296;SDS011;20564;42.902;25.336;2022-07-23T05:46:02;3.65;;;1.35;;
34296;SDS011;20564;42.902;25.336;2022-07-23T05:48:30;2.35;;;1.48;;
34296;SDS011;20564;42.902;25.336;2022-07-23T05:50:57;4.07;;;1.70;;
34296;SDS011;20564;42.902;25.336;2022-07-23T05:53:24;5.30;;;1.75;;
34296;SDS011;20564;42.902;25.336;2022-07-23T05:55:51;4.28;;;1.20;;
34296;SDS011;20564;42.902;25.336;2022-07-23T05:58:18;4.60;;;1.20;;
34296;SDS011;20564;42.902;25.336;2022-07-23T06:00:45;5.40;;;1.77;;
34296;SDS011;20564;42.902;25.336;2022-07-23T06:03:12;3.22;;;1.20;;
34296;SDS011;20564;42.902;25.336;2022-07-23T06:05:40;4.05;;;1.85;;
34296;SDS011;20564;42.902;25.336;2022-07-23T06:08:07;3.30;;;1.50;;
34296;SDS011;20564;42.902;25.336;2022-07-23T06:10:35;3.83;;;1.55;;
34296;SDS011;20564;42.902;25.336;2022-07-23T06:13:02;4.10;;;1.77;;
34296;SDS011;20564;42.902;25.336;2022-07-23T06:15:29;3.58;;;1.45;;
34296;SDS011;20564;42.902;25.336;2022-07-23T06:17:57;3.88;;;1.90;;
34296;SDS011;20564;42.902;25.336;2022-07-23T06:20:25;3.78;;;1.40;;
34296;SDS011;20564;42.902;25.336;2022-07-23T06:22:52;5.00;;;1.73;;
34296;SDS011;20564;42.902;25.336;2022-07-23T06:25:19;2.55;;;1.58;;
34296;SDS011;20564;42.902;25.336;2022-07-23T06:27:47;6.38;;;1.83;;
34296;SDS011;20564;42.902;25.336;2022-07-23T06:32:46;5.38;;;1.83;;
34296;SDS011;20564;42.902;25.336;2022-07-23T06:35:14;3.63;;;1.52;;
34296;SDS011;20564;42.902;25.336;2022-07-23T06:37:42;5.40;;;2.10;;
34296;SDS011;20564;42.902;25.336;2022-07-23T06:40:11;3.55;;;1.15;;
34296;SDS011;20564;42.902;25.336;2022-07-23T06:42:39;4.75;;;2.00;;
34296;SDS011;20564;42.902;25.336;2022-07-23T06:45:06;8.68;;;1.95;;
34296;SDS011;20564;42.902;25.336;2022-07-23T06:47:34;3.85;;;1.75;;
34296;SDS011;20564;42.902;25.336;2022-07-23T06:50:02;2.55;;;1.50;;
34296;SDS011;20564;42.902;25.336;2022-07-23T06:52:29;4.82;;;1.77;;
34296;SDS011;20564;42.902;25.336;2022-07-23T06:54:58;2.90;;;1.55;;
34296;SDS011;20564;42.902;25.336;2022-07-23T06:57:25;3.45;;;2.03;;
34296;SDS011;20564;42.902;25.336;2022-07-23T06:59:52;4.25;;;1.90;;
34296;SDS011;20564;42.902;25.336;2022-07-23T07:02:21;4.10;;;1.90;;
34296;SDS011;20564;42.902;25.336;2022-07-23T07:07:16;6.03;;;1.73;;
34296;SDS011;20564;42.902;25.336;2022-07-23T07:12:13;5.28;;;1.75;;
34296;SDS011;20564;42.902;25.336;2022-07-23T07:17:07;3.58;;;1.75;;
34296;SDS011;20564;42.902;25.336;2022-07-23T07:19:35;4.93;;;1.52;;
34296;SDS011;20564;42.902;25.336;2022-07-23T07:22:03;5.53;;;1.80;;
34296;SDS011;20564;42.902;25.336;2022-07-23T07:27:03;2.45;;;1.40;;
34296;SDS011;20564;42.902;25.336;2022-07-23T07:29:30;4.00;;;1.67;;
34296;SDS011;20564;42.902;25.336;2022-07-23T07:32:00;3.95;;;1.63;;
34296;SDS011;20564;42.902;25.336;2022-07-23T07:36:55;4.13;;;1.52;;
34296;SDS011;20564;42.902;25.336;2022-07-23T07:39:22;3.05;;;1.45;;
34296;SDS011;20564;42.902;25.336;2022-07-23T07:44:17;3.60;;;1.33;;
34296;SDS011;20564;42.902;25.336;2022-07-23T07:46:47;4.03;;;1.60;;
34296;SDS011;20564;42.902;25.336;2022-07-23T07:49:16;3.50;;;1.50;;
34296;SDS011;20564;42.902;25.336;2022-07-23T07:51:47;5.20;;;1.77;;
34296;SDS011;20564;42.902;25.336;2022-07-23T07:54:15;2.58;;;1.50;;
34296;SDS011;20564;42.902;25.336;2022-07-23T07:56:42;3.70;;;1.67;;
34296;SDS011;20564;42.902;25.336;2022-07-23T07:59:12;4.78;;;1.73;;
34296;SDS011;20564;42.902;25.336;2022-07-23T08:01:41;3.50;;;1.48;;
34296;SDS011;20564;42.902;25.336;2022-07-23T08:04:08;4.07;;;1.63;;
34296;SDS011;20564;42.902;25.336;2022-07-23T08:06:36;4.25;;;1.42;;
34296;SDS011;20564;42.902;25.336;2022-07-23T08:09:03;4.00;;;1.73;;
34296;SDS011;20564;42.902;25.336;2022-07-23T08:11:30;3.75;;;1.55;;
34296;SDS011;20564;42.902;25.336;2022-07-23T08:14:01;2.97;;;1.70;;
34296;SDS011;20564;42.902;25.336;2022-07-23T08:16:28;4.00;;;1.50;;
34296;SDS011;20564;42.902;25.336;2022-07-23T08:19:16;2.20;;;1.50;;
34296;SDS011;20564;42.902;25.336;2022-07-23T08:21:43;4.10;;;1.88;;
34296;SDS011;20564;42.902;25.336;2022-07-23T08:24:10;3.92;;;1.70;;
34296;SDS011;20564;42.902;25.336;2022-07-23T08:26:38;4.32;;;1.60;;
34296;SDS011;20564;42.902;25.336;2022-07-23T08:29:05;3.00;;;1.63;;
34296;SDS011;20564;42.902;25.336;2022-07-23T08:31:32;2.65;;;1.23;;
34296;SDS011;20564;42.902;25.336;2022-07-23T08:34:02;4.50;;;1.70;;
34296;SDS011;20564;42.902;25.336;2022-07-23T08:36:30;7.07;;;1.63;;
34296;SDS011;20564;42.902;25.336;2022-07-23T08:38:59;11.02;;;3.60;;
34296;SDS011;20564;42.902;25.336;2022-07-23T08:41:26;9.10;;;3.55;;
34296;SDS011;20564;42.902;25.336;2022-07-23T08:43:53;10.00;;;3.67;;
34296;SDS011;20564;42.902;25.336;2022-07-23T08:46:21;8.80;;;2.80;;
34296;SDS011;20564;42.902;25.336;2022-07-23T08:48:49;11.95;;;4.00;;
34296;SDS011;20564;42.902;25.336;2022-07-23T08:51:20;9.38;;;3.90;;
34296;SDS011;20564;42.902;25.336;2022-07-23T08:53:50;4.88;;;2.00;;
34296;SDS011;20564;42.902;25.336;2022-07-23T08:56:19;4.05;;;1.52;;
34296;SDS011;20564;42.902;25.336;2022-07-23T08:58:46;4.22;;;2.10;;
34296;SDS011;20564;42.902;25.336;2022-07-23T09:01:14;3.63;;;1.70;;
34296;SDS011;20564;42.902;25.336;2022-07-23T09:03:41;3.83;;;1.73;;
34296;SDS011;20564;42.902;25.336;2022-07-23T09:06:11;4.38;;;1.90;;
34296;SDS011;20564;42.902;25.336;2022-07-23T09:08:40;7.30;;;3.10;;
34296;SDS011;20564;42.902;25.336;2022-07-23T09:11:17;5.90;;;2.60;;
34296;SDS011;20564;42.902;25.336;2022-07-23T09:16:17;9.20;;;2.80;;
34296;SDS011;20564;42.902;25.336;2022-07-23T09:18:47;6.53;;;2.45;;
34296;SDS011;20564;42.902;25.336;2022-07-23T09:21:27;5.07;;;1.65;;
34296;SDS011;20564;42.902;25.336;2022-07-23T09:24:05;5.95;;;1.85;;
34296;SDS011;20564;42.902;25.336;2022-07-23T09:29:20;4.20;;;1.77;;
34296;SDS011;20564;42.902;25.336;2022-07-23T09:31:56;3.38;;;1.73;;
34296;SDS011;20564;42.902;25.336;2022-07-23T09:34:35;3.03;;;1.60;;
34296;SDS011;20564;42.902;25.336;2022-07-23T09:37:09;7.45;;;2.17;;
34296;SDS011;20564;42.902;25.336;2022-07-23T09:39:41;6.03;;;2.37;;
34296;SDS011;20564;42.902;25.336;2022-07-23T09:44:51;4.38;;;1.95;;
34296;SDS011;20564;42.902;25.336;2022-07-23T09:47:20;4.22;;;1.77;;
34296;SDS011;20564;42.902;25.336;2022-07-23T09:50:05;3.50;;;1.85;;
34296;SDS011;20564;42.902;25.336;2022-07-23T09:52:46;4.85;;;1.65;;
34296;SDS011;20564;42.902;25.336;2022-07-23T09:55:19;4.72;;;1.88;;
34296;SDS011;20564;42.902;25.336;2022-07-23T09:57:46;8.63;;;2.50;;
34296;SDS011;20564;42.902;25.336;2022-07-23T10:00:19;4.05;;;1.50;;
34296;SDS011;20564;42.902;25.336;2022-07-23T10:02:46;3.47;;;1.88;;
34296;SDS011;20564;42.902;25.336;2022-07-23T10:05:14;4.28;;;1.55;;
34296;SDS011;20564;42.902;25.336;2022-07-23T10:07:42;3.35;;;1.48;;
34296;SDS011;20564;42.902;25.336;2022-07-23T10:10:15;3.97;;;1.77;;
34296;SDS011;20564;42.902;25.336;2022-07-23T10:12:43;3.92;;;1.45;;
34296;SDS011;20564;42.902;25.336;2022-07-23T10:15:17;2.50;;;1.40;;
34296;SDS011;20564;42.902;25.336;2022-07-23T10:17:44;3.97;;;1.70;;
34296;SDS011;20564;42.902;25.336;2022-07-23T10:20:11;5.32;;;1.98;;
34296;SDS011;20564;42.902;25.336;2022-07-23T10:22:50;3.50;;;1.63;;
34296;SDS011;20564;42.902;25.336;2022-07-23T10:34:25;3.60;;;1.80;;
34296;SDS011;20564;42.902;25.336;2022-07-23T10:37:12;5.93;;;2.03;;
34296;SDS011;20564;42.902;25.336;2022-07-23T10:42:36;2.87;;;1.37;;
34296;SDS011;20564;42.902;25.336;2022-07-23T10:45:23;4.30;;;2.10;;
34296;SDS011;20564;42.902;25.336;2022-07-23T10:47:54;5.93;;;2.42;;
34296;SDS011;20564;42.902;25.336;2022-07-23T10:50:24;5.05;;;1.83;;
34296;SDS011;20564;42.902;25.336;2022-07-23T10:55:43;3.92;;;1.70;;
34296;SDS011;20564;42.902;25.336;2022-07-23T10:58:17;5.82;;;2.10;;
34296;SDS011;20564;42.902;25.336;2022-07-23T11:00:47;3.03;;;1.50;;
34296;SDS011;20564;42.902;25.336;2022-07-23T11:03:34;4.93;;;1.83;;
34296;SDS011;20564;42.902;25.336;2022-07-23T11:06:05;4.53;;;1.77;;
34296;SDS011;20564;42.902;25.336;2022-07-23T11:08:32;2.70;;;1.45;;
34296;SDS011;20564;42.902;25.336;2022-07-23T11:34:48;5.75;;;1.75;;
34296;SDS011;20564;42.902;25.336;2022-07-23T11:40:11;6.30;;;1.83;;
34296;SDS011;20564;42.902;25.336;2022-07-23T11:42:50;6.53;;;2.00;;
34296;SDS011;20564;42.902;25.336;2022-07-23T11:45:30;3.03;;;1.60;;
34296;SDS011;20564;42.902;25.336;2022-07-23T11:48:02;4.85;;;1.80;;
34296;SDS011;20564;42.902;25.336;2022-07-23T11:50:30;4.13;;;1.65;;
34296;SDS011;20564;42.902;25.336;2022-07-23T11:52:58;4.65;;;2.08;;
34296;SDS011;20564;42.902;25.336;2022-07-23T11:55:26;2.53;;;1.50;;
34296;SDS011;20564;42.902;25.336;2022-07-23T11:57:56;4.03;;;1.63;;
34296;SDS011;20564;42.902;25.336;2022-07-23T12:00:26;4.40;;;1.83;;
34296;SDS011;20564;42.902;25.336;2022-07-23T12:03:04;4.70;;;2.03;;
34296;SDS011;20564;42.902;25.336;2022-07-23T12:05:34;4.72;;;2.10;;
34296;SDS011;20564;42.902;25.336;2022-07-23T12:08:23;3.78;;;1.70;;
34296;SDS011;20564;42.902;25.336;2022-07-23T12:10:57;4.70;;;1.73;;
34296;SDS011;20564;42.902;25.336;2022-07-23T12:13:37;3.83;;;1.48;;
34296;SDS011;20564;42.902;25.336;2022-07-23T12:16:11;3.63;;;1.67;;
34296;SDS011;20564;42.902;25.336;2022-07-23T12:18:45;4.15;;;1.88;;
34296;SDS011;20564;42.902;25.336;2022-07-23T12:21:12;4.05;;;1.65;;
34296;SDS011;20564;42.902;25.336;2022-07-23T12:23:39;3.92;;;1.85;;
34296;SDS011;20564;42.902;25.336;2022-07-23T12:26:09;6.97;;;1.92;;
34296;SDS011;20564;42.902;25.336;2022-07-23T12:28:38;4.53;;;1.67;;
34296;SDS011;20564;42.902;25.336;2022-07-23T12:31:06;5.88;;;1.77;;
34296;SDS011;20564;42.902;25.336;2022-07-23T12:33:34;5.60;;;2.08;;
34296;SDS011;20564;42.902;25.336;2022-07-23T12:36:06;6.22;;;2.13;;
34296;SDS011;20564;42.902;25.336;2022-07-23T12:38:37;3.55;;;1.80;;
34296;SDS011;20564;42.902;25.336;2022-07-23T12:41:18;3.30;;;1.60;;
34296;SDS011;20564;42.902;25.336;2022-07-23T12:43:45;5.25;;;1.77;;
34296;SDS011;20564;42.902;25.336;2022-07-23T12:46:17;7.15;;;2.40;;
34296;SDS011;20564;42.902;25.336;2022-07-23T12:51:18;3.70;;;1.58;;
34296;SDS011;20564;42.902;25.336;2022-07-23T12:53:54;3.72;;;1.83;;
34296;SDS011;20564;42.902;25.336;2022-07-23T13:01:32;5.60;;;1.77;;
34296;SDS011;20564;42.902;25.336;2022-07-23T13:04:10;5.07;;;2.08;;
34296;SDS011;20564;42.902;25.336;2022-07-23T13:06:40;3.40;;;1.58;;
34296;SDS011;20564;42.902;25.336;2022-07-23T13:09:14;2.70;;;1.67;;
34296;SDS011;20564;42.902;25.336;2022-07-23T13:11:43;4.05;;;1.65;;
34296;SDS011;20564;42.902;25.336;2022-07-23T13:14:13;5.13;;;1.98;;
34296;SDS011;20564;42.902;25.336;2022-07-23T13:16:42;3.95;;;2.10;;
34296;SDS011;20564;42.902;25.336;2022-07-23T13:19:10;4.25;;;2.05;;
34296;SDS011;20564;42.902;25.336;2022-07-23T13:21:38;3.08;;;1.80;;
34296;SDS011;20564;42.902;25.336;2022-07-23T13:24:08;4.55;;;1.90;;
34296;SDS011;20564;42.902;25.336;2022-07-23T13:26:36;3.15;;;1.63;;
34296;SDS011;20564;42.902;25.336;2022-07-23T13:29:04;3.47;;;1.90;;
34296;SDS011;20564;42.902;25.336;2022-07-23T13:31:36;4.82;;;2.20;;
34296;SDS011;20564;42.902;25.336;2022-07-23T13:34:06;3.92;;;1.95;;
34296;SDS011;20564;42.902;25.336;2022-07-23T13:36:33;3.80;;;1.80;;
34296;SDS011;20564;42.902;25.336;2022-07-23T13:39:02;4.43;;;1.90;;
34296;SDS011;20564;42.902;25.336;2022-07-23T13:41:32;5.60;;;2.10;;
34296;SDS011;20564;42.902;25.336;2022-07-23T13:43:59;3.80;;;1.63;;
34296;SDS011;20564;42.902;25.336;2022-07-23T13:46:28;3.95;;;2.08;;
34296;SDS011;20564;42.902;25.336;2022-07-23T13:48:55;4.60;;;1.90;;
34296;SDS011;20564;42.902;25.336;2022-07-23T13:51:23;6.35;;;1.98;;
34296;SDS011;20564;42.902;25.336;2022-07-23T13:53:51;4.72;;;2.00;;
34296;SDS011;20564;42.902;25.336;2022-07-23T13:56:19;3.92;;;2.28;;
34296;SDS011;20564;42.902;25.336;2022-07-23T13:58:46;5.72;;;1.92;;
34296;SDS011;20564;42.902;25.336;2022-07-23T14:01:14;4.38;;;1.90;;
34296;SDS011;20564;42.902;25.336;2022-07-23T14:03:43;3.08;;;1.73;;
34296;SDS011;20564;42.902;25.336;2022-07-23T14:06:14;5.30;;;2.28;;
34296;SDS011;20564;42.902;25.336;2022-07-23T14:08:43;6.22;;;2.05;;
34296;SDS011;20564;42.902;25.336;2022-07-23T14:11:11;7.72;;;2.25;;
34296;SDS011;20564;42.902;25.336;2022-07-23T14:13:39;3.60;;;1.80;;
34296;SDS011;20564;42.902;25.336;2022-07-23T14:16:08;3.80;;;1.70;;
34296;SDS011;20564;42.902;25.336;2022-07-23T14:18:38;7.43;;;2.35;;
34296;SDS011;20564;42.902;25.336;2022-07-23T14:21:08;7.85;;;2.35;;
34296;SDS011;20564;42.902;25.336;2022-07-23T14:23:35;6.30;;;2.85;;
34296;SDS011;20564;42.902;25.336;2022-07-23T14:26:04;4.32;;;1.95;;
34296;SDS011;20564;42.902;25.336;2022-07-23T14:28:32;5.10;;;1.98;;
34296;SDS011;20564;42.902;25.336;2022-07-23T14:31:05;5.63;;;2.00;;
34296;SDS011;20564;42.902;25.336;2022-07-23T14:33:46;4.03;;;1.67;;
34296;SDS011;20564;42.902;25.336;2022-07-23T14:36:13;4.20;;;1.98;;
34296;SDS011;20564;42.902;25.336;2022-07-23T14:38:41;6.55;;;2.03;;
34296;SDS011;20564;42.902;25.336;2022-07-23T14:41:08;3.22;;;1.88;;
34296;SDS011;20564;42.902;25.336;2022-07-23T14:43:37;6.97;;;2.25;;
34296;SDS011;20564;42.902;25.336;2022-07-23T14:46:04;3.55;;;1.83;;
34296;SDS011;20564;42.902;25.336;2022-07-23T14:48:31;5.75;;;2.13;;
34296;SDS011;20564;42.902;25.336;2022-07-23T14:50:59;4.57;;;1.98;;
34296;SDS011;20564;42.902;25.336;2022-07-23T14:53:27;3.28;;;1.65;;
34296;SDS011;20564;42.902;25.336;2022-07-23T14:55:55;3.53;;;1.60;;
34296;SDS011;20564;42.902;25.336;2022-07-23T14:58:23;3.25;;;1.63;;
34296;SDS011;20564;42.902;25.336;2022-07-23T15:00:52;3.55;;;1.70;;
34296;SDS011;20564;42.902;25.336;2022-07-23T15:03:19;2.80;;;1.70;;
34296;SDS011;20564;42.902;25.336;2022-07-23T15:05:47;5.03;;;2.10;;
34296;SDS011;20564;42.902;25.336;2022-07-23T15:08:14;5.57;;;2.25;;
34296;SDS011;20564;42.902;25.336;2022-07-23T15:10:49;3.95;;;1.80;;
34296;SDS011;20564;42.902;25.336;2022-07-23T15:13:16;7.50;;;2.40;;
34296;SDS011;20564;42.902;25.336;2022-07-23T15:15:44;3.42;;;1.80;;
34296;SDS011;20564;42.902;25.336;2022-07-23T15:18:16;6.15;;;2.03;;
34296;SDS011;20564;42.902;25.336;2022-07-23T15:20:44;5.43;;;2.20;;
34296;SDS011;20564;42.902;25.336;2022-07-23T15:23:13;3.63;;;1.80;;
34296;SDS011;20564;42.902;25.336;2022-07-23T15:25:41;3.95;;;1.70;;
34296;SDS011;20564;42.902;25.336;2022-07-23T15:28:15;5.13;;;1.80;;
34296;SDS011;20564;42.902;25.336;2022-07-23T15:30:47;7.30;;;2.25;;
34296;SDS011;20564;42.902;25.336;2022-07-23T15:33:17;17.98;;;2.95;;
34296;SDS011;20564;42.902;25.336;2022-07-23T15:35:46;7.32;;;2.08;;
34296;SDS011;20564;42.902;25.336;2022-07-23T15:38:14;5.53;;;2.53;;
34296;SDS011;20564;42.902;25.336;2022-07-23T15:40:50;6.68;;;2.10;;
34296;SDS011;20564;42.902;25.336;2022-07-23T15:43:17;4.35;;;2.20;;
34296;SDS011;20564;42.902;25.336;2022-07-23T15:45:45;4.25;;;1.80;;
34296;SDS011;20564;42.902;25.336;2022-07-23T15:48:13;3.70;;;1.83;;
34296;SDS011;20564;42.902;25.336;2022-07-23T15:50:40;5.20;;;1.77;;
34296;SDS011;20564;42.902;25.336;2022-07-23T15:53:11;4.22;;;1.95;;
34296;SDS011;20564;42.902;25.336;2022-07-23T15:55:43;6.72;;;1.88;;
34296;SDS011;20564;42.902;25.336;2022-07-23T15:58:12;4.22;;;1.90;;
34296;SDS011;20564;42.902;25.336;2022-07-23T16:00:40;4.13;;;1.75;;
34296;SDS011;20564;42.902;25.336;2022-07-23T16:03:11;5.13;;;1.90;;
34296;SDS011;20564;42.902;25.336;2022-07-23T16:05:40;4.25;;;2.00;;
34296;SDS011;20564;42.902;25.336;2022-07-23T16:08:07;4.70;;;2.22;;
34296;SDS011;20564;42.902;25.336;2022-07-23T16:10:35;7.82;;;2.17;;